• Join FlightAware (Why Join?)
  • Login
  • US Flag 
02:51PM EDT


 

Airport Tracker/Info


-or-


 

Live Flight TrackerFlight Track Log ✈ UAL906 ✈ 13-Jun-2013 ✈ EDDF / FRA - KORD

Flight Track Log - Related Links

Times and Time Zones

All times are in EDT time to prevent confusion due to time zone crossing. See the UAL906 flight status page for this flight to view local times or setup timezone preferences in your user account.

Time Position Orientation Groundspeed Altitude Reporting Facility
EDT Latitude Longitude Course Direction KTS MPH feet Rate Location/Type
08:00AM 50.0270 8.5110 258° West 179 206 1,700  Level FlightAware
08:01AM 50.0290 8.4680 274° West 188 216 2,700 1,740 Climbing FlightAware
08:02AM 50.0280 8.4170 268° West 196 226 3,700 1,200 Climbing FlightAware
08:02AM 50.0240 8.3900 257° West 215 247 3,900 1,020 Climbing FlightAware
08:02AM 50.0190 8.3460 260° West 241 277 4,500 1,380 Climbing FlightAware
08:03AM 50.0150 8.3190 257° West 256 295 4,800 1,260 Climbing FlightAware
08:03AM 50.0220 8.2440 278° West 297 342 5,700 1,440 Climbing FlightAware
08:04AM 50.0490 8.1620 297° West 327 376 6,800 1,860 Climbing FlightAware
08:04AM 50.0830 8.1110 316° Northwest 341 392 7,900 1,980 Climbing FlightAware
08:05AM 50.1240 8.0680 326° Northwest 353 406 8,900 2,040 Climbing FlightAware
08:05AM 50.1570 8.0300 324° Northwest 361 415 9,800 2,160 Climbing FlightAware
08:06AM 50.2190 7.9600 324° Northwest 371 427 11,400 1,860 Climbing FlightAware
08:07AM 50.2690 7.9040 324° Northwest 378 435 12,300 1,680 Climbing FlightAware
08:07AM 50.3340 7.8320 325° Northwest 395 455 13,700 1,740 Climbing FlightAware
08:08AM 50.3950 7.7620 324° Northwest 399 459 14,900 1,620 Climbing FlightAware
08:09AM 50.4480 7.7020 324° Northwest 402 463 16,000 1,920 Climbing FlightAware
08:09AM 50.5100 7.6320 324° Northwest 405 466 17,200 1,740 Climbing FlightAware
08:10AM 50.5950 7.5360 324° Northwest 422 486 18,600 1,680 Climbing FlightAware
08:11AM 50.6870 7.4300 324° Northwest 437 503 20,500 2,040 Climbing FlightAware
08:12AM 50.7620 7.3450 324° Northwest 441 507 22,000 2,160 Climbing FlightAware
08:13AM 50.8260 7.2720 324° Northwest 436 502 23,400 1,920 Climbing FlightAware
08:13AM 50.8990 7.1870 324° Northwest 426 490 24,800 1,320 Climbing FlightAware
08:14AM 50.9620 7.1120 323° Northwest 439 505 25,300 480 Climbing FlightAware
08:16AM 51.0640 6.9620 317° Northwest 457 526 26,000 720 Climbing FlightAware
08:16AM 51.1700 6.7730 312° West 463 533 27,100 1,260 Climbing FlightAware
08:17AM 51.2270 6.6560 308° West 468 539 27,800 780 Climbing FlightAware
08:18AM 51.2730 6.5600 307° West 473 544 28,200 720 Climbing FlightAware
08:18AM 51.3320 6.4380 308° West 479 551 28,800 900 Climbing FlightAware
08:19AM 51.3930 6.3110 308° West 484 557 29,500 840 Climbing FlightAware
08:20AM 51.4610 6.1880 312° West 496 571 30,100 480 Climbing FlightAware
08:21AM 51.4730 6.1670 313° West 496 571 30,200 1,260 Climbing FlightAware
08:21AM 51.5900 5.9630 313° West 487 560 31,900 1,260 Climbing FlightAware
08:22AM 51.6500 5.8570 312° West 488 562 32,000 60 Climbing FlightAware
08:23AM 51.7090 5.7550 313° West 488 562 32,000  Level FlightAware
08:23AM 51.7379 5.6596 313° West 494 568 32,000  Level FlightAware UK
08:23AM 51.7830 5.6280 313° West 488 562 32,000  Level FlightAware
08:24AM 51.8288 5.5492 313° West 492 566 32,000  Level FlightAware UK
08:24AM 51.8480 5.5170 313° West 487 560 32,000 -240 Level FlightAware
08:24AM 51.8778 5.4708 313° West 492 566 31,900 -180 Descending FlightAware UK
08:25AM 51.9222 5.3896 312° West 492 566 31,900 120 Level FlightAware UK
08:25AM 51.9310 5.3740 312° West 486 559 32,000  Climbing FlightAware
08:26AM 51.9778 5.2942 312° West 492 566 31,900  Descending FlightAware UK
08:26AM 51.9880 5.2760 312° West 485 558 32,000  Climbing FlightAware
08:26AM 52.0234 5.2144 312° West 490 564 31,900  Descending FlightAware UK
08:26AM 52.0640 5.1470 312° West 485 558 32,000 600 Climbing FlightAware
08:27AM 52.1240 5.0430 313° West 486 559 32,600 900 Climbing FlightAware
08:28AM 52.1890 4.9330 314° West 485 558 33,300 960 Climbing FlightAware
08:29AM 52.2570 4.8200 315° West 482 555 34,000 480 Climbing FlightAware
08:29AM 52.3210 4.7210 315° West 491 565 34,000  Level FlightAware
08:29AM 52.3243 4.7136 315° West 484 557 34,000 -240 Level FlightAware UK
08:30AM 52.3777 4.6446 315° West 486 559 33,900 -120 Descending FlightAware UK
08:31AM 52.4640 4.5363 323° Northwest 484 557 33,900 60 Level FlightAware UK
08:31AM 52.4330 4.5750 323° Northwest 492 566 34,000 60 Climbing FlightAware
08:31AM 52.5500 4.4160 320° Northwest 491 565 34,000  Level FlightAware
08:32AM 52.6170 4.3230 320° Northwest 493 567 34,000  Level FlightAware
08:33AM 52.6910 4.2200 320° Northwest 495 570 34,000  Level FlightAware
08:33AM 52.7650 4.1160 320° Northwest 496 571 34,000  Level FlightAware
08:34AM 52.8380 4.0130 320° Northwest 496 571 34,000  Level FlightAware
08:35AM 52.8912 3.9390 320° Northwest 488 562 34,000  Level FlightAware UK
08:35AM 52.9040 3.9200 320° Northwest 490 564 34,000  Level FlightAware
08:35AM 52.9645 3.8359 320° Northwest 486 559 34,000  Level FlightAware UK
08:36AM 52.9450 3.8620 320° Northwest 496 571 34,000  Level FlightAware
08:37AM 53.0870 3.6610 320° Northwest 497 572 34,000  Level FlightAware
08:37AM 53.1530 3.5670 320° Northwest 498 573 34,000  Level FlightAware
08:37AM 53.1841 3.5236 320° Northwest 482 555 34,000  Level FlightAware UK
08:38AM 53.2360 3.4540 320° Northwest 510 587 34,000  Level FlightAware
08:39AM 53.3540 3.3670 336° Northwest 524 603 34,000  Level FlightAware
08:39AM 53.4330 3.2960 332° Northwest 502 578 34,000 -120 Level FlightAware
08:40AM 53.4878 3.2206 332° Northwest 484 557 33,900  Descending FlightAware UK
08:40AM 53.5322 3.1380 312° West 490 564 34,000 120 Climbing FlightAware UK
08:41AM 53.5540 3.0990 312° West 482 555 34,000  Level FlightAware
08:41AM 53.6070 2.9860 308° West 463 533 34,000 -120 Level FlightAware
08:42AM 53.6770 2.8264 308° West 478 550 33,900  Descending FlightAware UK
08:42AM 53.6790 2.8210 308° West 469 540 34,000  Climbing FlightAware
08:43AM 53.7156 2.7383 308° West 482 555 33,900  Descending FlightAware UK
08:43AM 53.7330 2.7100 318° Northwest 490 564 34,000  Climbing FlightAware
08:43AM 53.7459 2.6924 318° Northwest 484 557 33,900 -180 Descending FlightAware UK
08:44AM 53.7881 2.6059 318° Northwest 486 559 33,900 120 Level FlightAware UK
08:44AM 53.8030 2.5700 318° Northwest 471 542 34,000  Climbing FlightAware
08:44AM 53.8267 2.5175 318° Northwest 482 555 33,900  Descending FlightAware UK
08:44AM 53.8550 2.4530 318° Northwest 473 544 34,000 60 Climbing FlightAware
08:45AM 53.8920 2.3680 318° Northwest 469 540 34,000 -180 Level FlightAware
08:45AM 53.9127 2.3224 318° Northwest 486 559 33,900  Descending FlightAware UK
08:46AM 53.9573 2.2372 318° Northwest 488 562 34,000 120 Climbing FlightAware UK
08:46AM 53.9750 2.2040 318° Northwest 483 556 34,000  Level FlightAware
08:46AM 54.0021 2.1522 318° Northwest 486 559 34,000  Level FlightAware UK
08:47AM 54.0280 2.1010 318° Northwest 483 556 34,000  Level FlightAware
08:47AM 54.0990 1.9660 312° West 483 556 34,000  Level FlightAware
08:48AM 54.1435 1.8807 312° West 486 559 34,000  Level FlightAware UK
08:48AM 54.1610 1.8470 312° West 482 555 34,000 -180 Level FlightAware
08:48AM 54.1963 1.7780 312° West 484 557 33,900  Descending FlightAware UK
08:49AM 54.2190 1.7330 312° West 481 554 34,000  Climbing FlightAware
08:49AM 54.2487 1.6758 312° West 484 557 33,900  Descending FlightAware UK
08:49AM 54.2880 1.5990 312° West 481 554 34,000 120 Climbing FlightAware
08:50AM 54.3104 1.5552 312° West 482 555 34,000  Level FlightAware UK
08:50AM 54.3360 1.5060 312° West 482 555 34,000  Level FlightAware
08:51AM 54.4030 1.3720 311° West 484 557 34,000 -120 Level FlightAware
08:51AM 54.4329 1.3137 311° West 484 557 33,900  Descending FlightAware UK
08:51AM 54.4620 1.2560 311° West 484 557 34,000  Climbing FlightAware
08:52AM 54.5030 1.1749 311° West 482 555 33,900  Descending FlightAware UK
08:52AM 54.5170 1.1470 311° West 484 557 34,000  Climbing FlightAware
08:52AM 54.5557 1.0698 311° West 482 555 33,900  Descending FlightAware UK
08:53AM 54.5870 1.0080 311° West 487 560 34,000  Climbing FlightAware
08:53AM 54.6258 0.9285 311° West 484 557 33,900  Descending FlightAware UK
08:53AM 54.6460 0.8880 311° West 487 560 34,000 120 Climbing FlightAware
08:54AM 54.6870 0.8060 311° West 487 560 34,000 -120 Level FlightAware
08:55AM 54.7567 0.6635 311° West 486 559 33,900  Descending FlightAware UK
08:55AM 54.7790 0.6190 311° West 488 562 34,000 60 Climbing FlightAware
08:56AM 54.8580 0.4570 310° West 491 565 34,000  Level FlightAware
08:57AM 54.9235 0.3226 310° West 486 559 34,000  Level FlightAware UK
08:57AM 54.9230 0.3250 310° West 491 565 34,000  Level FlightAware
08:57AM 54.9800 0.2070 310° West 491 565 34,000 -120 Level FlightAware
08:58AM 55.0285 0.1057 310° West 486 559 33,900  Descending FlightAware UK
08:58AM 55.0410 0.0790 310° West 493 567 34,000 60 Climbing FlightAware
08:59AM 55.1020 -0.0490 310° West 495 570 34,000  Level FlightAware
08:59AM 55.1670 -0.1840 310° West 495 570 34,000  Level FlightAware
09:00AM 55.2120 -0.2780 310° West 494 568 34,000  Level FlightAware
09:01AM 55.2840 -0.4320 309° West 494 568 34,000 -120 Level FlightAware
09:01AM 55.3425 -0.5561 309° West 492 566 33,900  Descending FlightAware UK
09:02AM 55.3520 -0.5750 309° West 492 566 34,000  Climbing FlightAware
09:02AM 55.3856 -0.6488 309° West 492 566 33,900  Descending FlightAware UK
09:02AM 55.4080 -0.6980 309° West 492 566 34,000  Climbing FlightAware
09:03AM 55.4460 -0.7782 309° West 492 566 33,900  Descending FlightAware UK
09:03AM 55.4680 -0.8260 309° West 491 565 34,000 120 Climbing FlightAware
09:03AM 55.5146 -0.9270 309° West 490 564 34,000  Level FlightAware UK
09:04AM 55.5240 -0.9480 309° West 491 565 34,000 -240 Level FlightAware
09:04AM 55.5575 -1.0202 309° West 492 566 33,900  Descending FlightAware UK
09:04AM 55.5890 -1.0890 309° West 491 565 34,000 120 Climbing FlightAware
09:05AM 55.6170 -1.1497 309° West 494 568 34,000  Level FlightAware UK
09:05AM 55.6460 -1.2130 309° West 491 565 34,000 -120 Level FlightAware
09:05AM 55.6941 -1.3191 309° West 492 566 33,900  Descending FlightAware UK
09:06AM 55.7070 -1.3470 309° West 490 564 34,000  Climbing FlightAware
09:06AM 55.7447 -1.4310 309° West 492 566 33,900  Descending FlightAware UK
09:06AM 55.7560 -1.4570 309° West 488 562 34,000  Climbing FlightAware
09:07AM 55.7869 -1.5248 309° West 488 562 33,900  Descending FlightAware UK
09:07AM 55.8200 -1.5990 309° West 489 563 34,000  Climbing FlightAware
09:07AM 55.8291 -1.6187 309° West 488 562 33,900 -180 Descending FlightAware UK
09:08AM 55.8713 -1.7127 309° West 490 564 33,900 120 Level FlightAware UK
09:08AM 55.8820 -1.7380 309° West 489 563 34,000  Climbing FlightAware
09:08AM 55.9382 -1.8635 309° West 490 564 33,900  Descending FlightAware UK
09:08AM 55.9390 -1.8660 309° West 489 563 34,000 120 Climbing FlightAware
09:09AM 56.0020 -2.0080 308° West 489 563 34,000 -120 Level FlightAware
09:10AM 56.0554 -2.1287 308° West 486 559 33,900  Descending FlightAware UK
09:11AM 56.1120 -2.2580 308° West 490 564 34,000 60 Climbing FlightAware
09:11AM 56.1637 -2.3772 308° West 490 564 34,000  Level FlightAware UK
09:11AM 56.1820 -2.4200 308° West 491 565 34,000  Level FlightAware
09:12AM 56.2053 -2.4735 308° West 488 562 34,000 120 Level FlightAware UK
09:12AM 56.2340 -2.5400 308° West 492 566 34,100 540 Climbing FlightAware
09:13AM 56.2967 -2.6853 308° West 488 562 34,600 720 Climbing FlightAware UK
09:13AM 56.2910 -2.6720 308° West 492 566 34,600 600 Level FlightAware
09:13AM 56.3383 -2.7825 308° West 492 566 34,900 660 Climbing FlightAware UK
09:13AM 56.3440 -2.7970 308° West 492 566 35,000 60 Climbing FlightAware
09:14AM 56.4110 -2.9530 308° West 490 564 35,000  Level FlightAware
09:15AM 56.4700 -3.0940 307° West 484 557 35,000  Level FlightAware
09:15AM 56.5260 -3.2250 308° West 484 557 35,000  Level FlightAware
09:16AM 56.5760 -3.3460 307° West 485 558 35,000  Level FlightAware
09:17AM 56.6350 -3.4890 307° West 485 558 35,000  Level FlightAware
09:17AM 56.6850 -3.6090 307° West 485 558 35,000  Level FlightAware
09:18AM 56.7312 -3.7208 307° West 490 564 35,000  Level FlightAware UK
09:18AM 56.7410 -3.7460 307° West 490 564 35,000  Level FlightAware
09:19AM 56.7879 -3.8590 307° West 492 566 35,000  Level FlightAware UK
09:19AM 56.8110 -3.9160 307° West 491 565 35,000  Level FlightAware
09:20AM 56.8720 -4.0650 307° West 491 565 35,000  Level FlightAware
09:20AM 56.9173 -4.1781 307° West 488 562 35,000  Level FlightAware UK
09:20AM 56.9150 -4.1720 307° West 491 565 35,000 -180 Level FlightAware
09:21AM 56.9656 -4.2982 307° West 488 562 34,900  Descending FlightAware UK
09:21AM 56.9810 -4.3380 307° West 490 564 35,000 180 Climbing FlightAware
09:21AM 57.0057 -4.3984 307° West 490 564 35,000  Level FlightAware UK
09:22AM 57.0350 -4.4720 307° West 491 565 35,000  Level FlightAware
09:22AM 57.0850 -4.5980 307° West 491 565 35,000  Level FlightAware
09:22AM 57.0937 -4.6193 307° West 492 566 35,000  Level FlightAware UK
09:23AM 57.1416 -4.7410 307° West 492 566 35,000  Level FlightAware UK
09:23AM 57.1450 -4.7510 307° West 491 565 35,000  Level FlightAware
09:24AM 57.1813 -4.8425 307° West 492 566 35,000  Level FlightAware UK
09:24AM 57.1960 -4.8790 307° West 489 563 35,000  Level FlightAware
09:24AM 57.2210 -4.9439 307° West 490 564 35,000  Level FlightAware UK
09:25AM 57.2580 -5.0380 307° West 484 557 35,000  Level FlightAware
09:25AM 57.3000 -5.1469 307° West 490 564 35,000  Level FlightAware UK
09:26AM 57.3000 -5.1480 307° West 489 563 35,000  Level FlightAware
09:26AM 57.3785 -5.3506 307° West 494 568 35,000  Level FlightAware UK
09:26AM 57.3920 -5.3860 307° West 488 562 35,000 -240 Level FlightAware
09:27AM 57.4177 -5.4528 307° West 490 564 34,900 -120 Descending FlightAware UK
09:27AM 57.4645 -5.5751 305° West 488 562 34,900 120 Level FlightAware UK
09:27AM 57.4670 -5.5830 305° West 487 560 35,000 120 Climbing FlightAware
09:28AM 57.5107 -5.6973 305° West 492 566 35,000  Level FlightAware UK
09:28AM 57.5120 -5.7010 305° West 488 562 35,000 -180 Level FlightAware
09:28AM 57.5572 -5.8205 305° West 494 568 34,900  Descending FlightAware UK
09:29AM 57.5720 -5.8590 305° West 486 559 35,000  Climbing FlightAware
09:29AM 57.5958 -5.9233 305° West 490 564 34,900  Descending FlightAware UK
09:29AM 57.6210 -5.9910 305° West 485 558 35,000 300 Climbing FlightAware
09:30AM 57.6726 -6.1285 305° West 486 559 35,200 240 Climbing FlightAware UK
09:30AM 57.7103 -6.2310 305° West 486 559 35,300  Climbing FlightAware UK
09:30AM 57.6900 -6.1750 305° West 483 556 35,200 300 Descending FlightAware
09:31AM 57.7559 -6.3544 305° West 492 566 35,500 540 Climbing FlightAware UK
09:31AM 57.7600 -6.3660 305° West 489 563 35,600 360 Climbing FlightAware
09:31AM 57.7944 -6.4590 305° West 494 568 35,700 420 Climbing FlightAware UK
09:32AM 57.8150 -6.5160 305° West 488 562 35,900 240 Climbing FlightAware
09:33AM 57.8720 -6.6730 304° West 490 564 36,000 60 Climbing FlightAware
09:33AM 57.9300 -6.8330 304° West 489 563 36,000  Level FlightAware
09:34AM 57.9740 -6.9540 304° West 488 562 36,000  Level FlightAware
09:34AM 57.9775 -6.9636 304° West 494 568 36,000 -240 Level FlightAware UK
09:34AM 58.0152 -7.0689 304° West 490 564 35,900  Descending FlightAware UK
09:35AM 58.0310 -7.1140 304° West 486 559 36,000 180 Climbing FlightAware
09:35AM 58.0527 -7.1742 304° West 488 562 36,000  Level FlightAware UK
09:36AM 58.0830 -7.2610 304° West 486 559 36,000  Level FlightAware
09:36AM 58.1560 -7.4660 304° West 483 556 36,000  Level FlightAware
09:37AM 58.2000 -7.5920 304° West 483 556 36,000  Level FlightAware
09:38AM 58.2620 -7.7720 303° West 484 557 36,000  Level FlightAware
09:38AM 58.3070 -7.8990 304° West 484 557 36,000  Level FlightAware
09:39AM 58.3504 -8.0265 304° West 490 564 36,000  Level FlightAware UK
09:39AM 58.3610 -8.0580 304° West 485 558 36,000 -240 Level FlightAware
09:39AM 58.3874 -8.1346 304° West 490 564 35,900  Descending FlightAware UK
09:40AM 58.4180 -8.2240 304° West 485 558 36,000  Climbing FlightAware
09:40AM 58.4688 -8.3733 304° West 490 564 35,900  Descending FlightAware UK
09:41AM 58.4680 -8.3710 304° West 486 559 36,000  Climbing FlightAware
09:41AM 58.5054 -8.4824 304° West 490 564 35,900  Descending FlightAware UK
09:41AM 58.5170 -8.5180 304° West 486 559 36,000  Climbing FlightAware
09:42AM 58.5493 -8.6135 304° West 490 564 35,900 120 Descending FlightAware UK
09:42AM 58.5670 -8.6660 304° West 486 559 36,100 480 Climbing FlightAware
09:43AM 58.6227 -8.8323 304° West 492 566 36,400 360 Climbing FlightAware UK
09:43AM 58.6210 -8.8280 304° West 486 559 36,400 360 Level FlightAware
09:43AM 58.6588 -8.9423 304° West 490 564 36,600 420 Climbing FlightAware UK
09:43AM 58.6720 -8.9820 304° West 487 560 36,700 420 Climbing FlightAware
09:44AM 58.7190 -9.1260 302° West 490 564 37,000 240 Climbing FlightAware
09:44AM 58.7500 -9.2200 302° West 491 565 37,000  Level FlightAware
09:46AM 58.8350 -9.4820 302° West 492 566 37,000  Level FlightAware
09:46AM 58.8880 -9.6490 302° West 492 566 37,000  Level FlightAware
09:47AM 58.9420 -9.8170 302° West 494 568 37,000  Level FlightAware
09:48AM 58.9890 -9.9680 301° West 494 568 37,000  Level FlightAware
09:48AM 59.0320 -10.1230 298° West 491 565 37,000  Level FlightAware
09:49AM 59.0810 -10.2750 302° West 491 565 37,000  Level FlightAware
09:50AM 59.1290 -10.4460 299° West 495 570 37,000  Level FlightAware
09:51AM 59.1750 -10.6300 296° West 491 565 37,000  Level FlightAware
09:51AM 59.2300 -10.8560 296° West 495 570 37,000  Level FlightAware
09:53AM 59.2980 -11.1380 295° West 495 570 37,000  Level FlightAware
09:53AM 59.3360 -11.2950 295° West 495 570 37,000  Level FlightAware
09:54AM 59.3780 -11.4740 295° West 496 571 37,000  Level FlightAware
09:55AM 59.4130 -11.6240 295° West 497 572 37,000  Level FlightAware
09:55AM 59.4520 -11.7960 294° West 497 572 37,000  Level FlightAware
09:56AM 59.4960 -11.9790 295° West 495 570 37,000  Level FlightAware
09:57AM 59.5340 -12.1490 294° West 495 570 37,000  Level FlightAware
09:58AM 59.5860 -12.3820 294° West 495 570 37,000  Level FlightAware
09:58AM 59.6150 -12.5200 293° West 495 570 37,000  Level FlightAware
09:59AM 59.6420 -12.6440 293° West 495 570 37,000  Level FlightAware
10:00AM 59.6850 -12.8470 293° West 495 570 37,000  Level FlightAware
10:01AM 59.7240 -13.0280 293° West 495 570 37,000  Level FlightAware
10:02AM 59.7780 -13.2810 293° West 495 570 37,000  Level FlightAware
10:03AM 59.8040 -13.4050 293° West 495 570 37,000  Level FlightAware
10:03AM 59.8410 -13.5760 293° West 495 570 37,000  Level FlightAware
10:04AM 59.8680 -13.7050 293° West 495 570 37,000  Level FlightAware
10:05AM 59.9040 -13.8730 293° West 495 570 37,000  Level FlightAware
10:05AM 59.9360 -14.0230 293° West 495 570 37,000  Level FlightAware
10:06AM 59.9630 -14.1520 293° West 495 570 37,000  Level FlightAware
10:07AM 59.9990 -14.3200 293° West 495 570 37,000  Level FlightAware
10:10AM 60.0679 -14.9806 282° West  Level Estimated
10:11AM 60.0929 -15.2291 282° West  Level Estimated
10:12AM 60.1174 -15.4779 281° West  Level Estimated
10:13AM 60.1414 -15.7271 281° West  Level Estimated
10:14AM 60.1650 -15.9766 281° West  Level Estimated
10:15AM 60.1881 -16.2265 281° West  Level Estimated
10:16AM 60.2107 -16.4768 280° West  Level Estimated
10:17AM 60.2329 -16.7274 280° West  Level Estimated
10:18AM 60.2546 -16.9783 280° West  Level Estimated
10:18AM 60.6450 -17.7060 280° West 507 583 37,000  Level FlightAware
10:19AM 60.6810 -17.9190 289° West 507 583 37,000  Level FlightAware
10:20AM 60.7050 -18.0620 289° West 507 583 37,000  Level FlightAware
10:21AM 60.7470 -18.3120 289° West 507 583 37,000  Level FlightAware
10:21AM 60.7730 -18.4670 289° West 507 583 37,000  Level FlightAware
10:22AM 60.8220 -18.7560 289° West 510 587 37,000  Level FlightAware
10:23AM 60.8490 -18.9260 288° West 510 587 37,000  Level FlightAware
10:23AM 60.8790 -19.1110 289° West 510 587 37,000  Level FlightAware
10:24AM 60.9140 -19.3300 288° West 510 587 37,000  Level FlightAware
10:25AM 60.9560 -19.6100 287° West 509 586 37,000  Level FlightAware
10:26AM 60.9790 -19.7680 287° West 509 586 37,000  Level FlightAware
10:27AM 61.0010 -19.9140 287° West 509 586 37,000  Level FlightAware
10:28AM 61.0580 -20.2880 288° West 510 587 37,000  Level FlightAware
10:28AM 61.0850 -20.4940 285° West 510 587 37,000  Level FlightAware
10:29AM 61.1150 -20.7170 286° West 512 589 37,000  Level FlightAware
10:30AM 61.1570 -21.0390 285° West 512 589 37,000  Level FlightAware
10:31AM 61.2000 -21.3510 286° West 514 592 37,000  Level FlightAware
10:32AM 61.2220 -21.5240 285° West 515 593 37,000  Level FlightAware
10:33AM 61.2520 -21.7580 285° West 516 594 37,000  Level FlightAware
10:34AM 61.2780 -21.9690 284° West 516 594 37,000  Level FlightAware
10:34AM 61.3090 -22.2220 284° West 516 594 37,000  Level FlightAware
10:35AM 61.3310 -22.4030 284° West 516 594 37,000  Level FlightAware
10:36AM 61.3470 -22.5380 284° West 517 595 37,000  Level FlightAware
10:36AM 61.3790 -22.8060 284° West 516 594 37,000  Level FlightAware
10:37AM 61.4030 -23.0120 284° West 516 594 37,000  Level FlightAware
10:38AM 61.4180 -23.1440 283° West 516 594 37,000  Level FlightAware
10:38AM 61.4430 -23.3590 284° West 516 594 37,000  Level FlightAware
10:39AM 61.4660 -23.5720 283° West 516 594 37,000  Level FlightAware
10:40AM 61.4890 -23.7760 283° West 515 593 37,000  Level FlightAware
10:40AM 61.5110 -23.9810 283° West 514 592 37,000  Level FlightAware
10:41AM 61.5310 -24.1700 283° West 513 590 37,000  Level FlightAware
10:42AM 61.5540 -24.3830 283° West 512 589 37,000  Level FlightAware
10:43AM 61.5750 -24.5900 282° West 512 589 37,000  Level FlightAware
10:43AM 61.5970 -24.7990 283° West 512 589 37,000  Level FlightAware
10:44AM 61.6160 -24.9940 282° West 511 588 37,000  Level FlightAware
10:45AM 61.6340 -25.1790 282° West 511 588 37,000  Level FlightAware
10:46AM 61.6770 -25.6260 282° West 511 588 37,000  Level FlightAware
10:47AM 61.7020 -25.8890 281° West 512 589 37,000  Level FlightAware
10:48AM 61.7180 -26.0640 281° West 512 589 37,000  Level FlightAware
10:48AM 61.7320 -26.2330 280° West 512 589 37,000  Level FlightAware
10:50AM 61.7660 -26.6110 281° West 512 589 37,000  Level FlightAware
10:50AM 61.7790 -26.7710 280° West 512 589 37,000  Level FlightAware
10:51AM 61.7930 -26.9340 280° West 512 589 37,000  Level FlightAware
10:52AM 61.8210 -27.2540 281° West 512 589 37,000  Level FlightAware
10:52AM 61.8350 -27.4260 280° West 512 589 37,000  Level FlightAware
10:53AM 61.8540 -27.6640 280° West 511 588 37,000  Level FlightAware
10:54AM 61.8670 -27.8330 279° West 511 588 37,000  Level FlightAware
10:54AM 61.8830 -28.0520 279° West 511 588 37,000  Level FlightAware
10:55AM 61.9000 -28.2800 279° West 511 588 37,000  Level FlightAware
10:56AM 61.9210 -28.5520 279° West 510 587 37,000  Level FlightAware
10:57AM 61.9350 -28.7550 278° West 510 587 37,000  Level FlightAware
10:57AM 61.9500 -28.9640 279° West 511 588 37,000  Level FlightAware
10:58AM 61.9630 -29.1680 278° West 511 588 37,000  Level FlightAware
10:59AM 61.9750 -29.3450 278° West 511 588 37,000  Level FlightAware
11:00AM 61.9880 -29.5390 278° West 511 588 37,000  Level FlightAware
11:00AM 62.0000 -29.7180 278° West 511 588 37,000  Level FlightAware
11:01AM 62.0110 -29.8870 278° West 511 588 37,000  Level FlightAware
11:02AM 62.0210 -30.0440 278° West 511 588 37,000  Level FlightAware
11:02AM 62.0350 -30.2600 278° West 511 588 37,000  Level FlightAware
11:03AM 62.0460 -30.4170 279° West 511 588 37,000  Level FlightAware
11:04AM 62.0630 -30.6770 278° West 511 588 37,000  Level FlightAware
11:05AM 62.0730 -30.8340 278° West 511 588 37,000  Level FlightAware
11:05AM 62.0840 -31.0040 278° West 511 588 37,000  Level FlightAware
11:06AM 62.0950 -31.1700 278° West 511 588 37,000  Level FlightAware
11:07AM 62.1120 -31.4290 278° West 511 588 37,000  Level FlightAware
11:08AM 62.1250 -31.6250 278° West 511 588 37,000  Level FlightAware
11:10AM 62.1317 -32.1159 272° West  Level FlightAware Approximate
11:11AM 62.1347 -32.3939 271° West  Level FlightAware Approximate
11:12AM 62.1371 -32.6719 271° West  Level FlightAware Approximate
11:13AM 62.1390 -32.9500 271° West  Level FlightAware Approximate
11:14AM 62.1403 -33.2281 271° West  Level FlightAware Approximate
11:15AM 62.1411 -33.5062 270° West  Level FlightAware Approximate
11:16AM 62.1413 -33.7843 270° West  Level FlightAware Approximate
11:17AM 62.1409 -34.0624 270° West  Level FlightAware Approximate
11:18AM 62.1400 -34.3405 270° West  Level FlightAware Approximate
11:19AM 62.1386 -34.6186 269° West  Level FlightAware Approximate
11:20AM 62.1366 -34.8966 269° West  Level FlightAware Approximate
11:21AM 62.1340 -35.1747 269° West  Level FlightAware Approximate
11:22AM 62.1309 -35.4526 269° West  Level FlightAware Approximate
11:22AM 62.1000 -36.3167 267° West 530 610 37,000  Level Gander Center
11:23AM 62.1272 -35.7305 268° West  Level FlightAware Approximate
11:23AM 62.1000 -36.6500 270° West 520 598 37,000  Level Gander Center
11:24AM 62.1229 -36.0083 268° West  Level FlightAware Approximate
11:24AM 62.0833 -36.9667 264° West 520 598 37,000  Level Gander Center
11:25AM 62.1181 -36.2861 268° West  Level FlightAware Approximate
11:25AM 62.0833 -37.2667 270° West 520 598 37,000  Level Gander Center
11:26AM 62.1128 -36.5637 268° West  Level FlightAware Approximate
11:26AM 62.0833 -37.5667 270° West 520 598 37,000  Level Gander Center
11:27AM 62.1068 -36.8413 268° West  Level FlightAware Approximate
11:27AM 62.0667 -37.8667 263° West 520 598 37,000  Level Gander Center
11:28AM 62.1004 -37.1187 267° West  Level FlightAware Approximate
11:28AM 62.0667 -38.1667 270° West 520 598 37,000  Level Gander Center
11:29AM 62.0667 -38.4667 270° West 520 598 37,000  Level Gander Center
11:30AM 62.0667 -38.7667 270° West 520 598 37,000  Level Gander Center
11:31AM 62.0500 -39.0833 264° West 520 598 37,000  Level Gander Center
11:32AM 62.0333 -39.3833 263° West 520 598 37,000  Level Gander Center
11:33AM 62.0333 -39.6667 270° West 520 598 37,000  Level Gander Center
11:34AM 62.0000 -39.9500 256° West 510 587 37,000  Level Gander Center
11:35AM 62.0000 -40.2500 270° West 510 587 37,000  Level Gander Center
11:36AM 61.9833 -40.5667 264° West 510 587 37,000  Level Gander Center
11:37AM 61.9500 -40.8667 257° West 510 587 37,000  Level Gander Center
11:38AM 61.9333 -41.1333 263° West 510 587 37,000  Level Gander Center
11:39AM 61.9167 -41.4333 263° West 510 587 37,000  Level Gander Center
11:40AM 61.9000 -41.7333 263° West 510 587 37,000  Level Gander Center
11:41AM 61.8667 -42.0167 256° West 510 587 37,000  Level Gander Center
11:42AM 61.8500 -42.3167 263° West 510 587 37,000  Level Gander Center
11:43AM 61.8333 -42.6167 263° West 510 587 37,000  Level Gander Center
11:44AM 61.8000 -42.8833 255° West 510 587 37,000  Level Gander Center
11:45AM 61.7667 -43.2000 258° West 510 587 37,000  Level Gander Center
11:46AM 61.7667 -43.4833 270° West 510 587 37,000  Level Gander Center
11:47AM 61.7333 -43.8000 258° West 510 587 37,000  Level Gander Center
11:48AM 61.7000 -44.0667 255° West 510 587 37,000  Level Gander Center
11:49AM 61.6833 -44.3667 263° West 510 587 37,000  Level Gander Center
11:50AM 61.6500 -44.6333 255° West 500 575 37,000  Level Gander Center
11:51AM 61.6167 -44.9333 257° West 500 575 37,000  Level Gander Center
11:52AM 61.6000 -45.2333 263° West 500 575 37,000  Level Gander Center
11:53AM 61.5500 -45.5000 249° West 500 575 37,000  Level Gander Center
11:54AM 61.5333 -45.7833 263° West 500 575 37,000  Level Gander Center
11:55AM 61.5000 -46.0500 255° West 500 575 37,000  Level Gander Center
11:56AM 61.4833 -46.3500 263° West 500 575 37,000  Level Gander Center
11:57AM 61.4500 -46.6167 255° West 500 575 37,000  Level Gander Center
11:58AM 61.4000 -46.8833 249° West 490 564 37,000  Level Gander Center
11:59AM 61.3833 -47.1667 263° West 490 564 37,000  Level Gander Center
12:00PM 61.3333 -47.4333 249° West 490 564 37,000  Level Gander Center
12:01PM 61.3167 -47.6833 262° West 490 564 37,000  Level Gander Center
12:02PM 61.2667 -47.9833 251° West 490 564 37,000  Level Gander Center
12:03PM 61.2500 -48.2833 264° West 490 564 37,000  Level Gander Center
12:04PM 61.2000 -48.5333 248° West 490 564 37,000  Level Gander Center
12:05PM 61.1833 -48.8000 255° West 490 564 37,000  Level Gander Center
12:06PM 61.1656 -48.7952 255° West  Level FlightAware Approximate
12:06PM 61.1333 -49.0833 250° West 490 564 37,000  Level Gander Center
12:07PM 61.1167 -49.3500 263° West 490 564 37,000  Level Gander Center
12:08PM 61.0667 -49.6000 248° West 490 564 37,000  Level Gander Center
12:09PM 61.0333 -49.8500 255° West 480 552 37,000  Level Gander Center
12:10PM 61.0000 -50.1500 257° West 480 552 37,000  Level Gander Center
12:11PM 60.9500 -50.4000 248° West 480 552 37,000  Level Gander Center
12:12PM 60.9000 -50.6667 249° West 480 552 37,000  Level Gander Center
12:13PM 60.8500 -50.9167 248° West 480 552 37,000  Level Gander Center
12:14PM 60.8167 -51.1667 255° West 480 552 37,000  Level Gander Center
12:15PM 60.7667 -51.4167 248° West 480 552 37,000  Level Gander Center
12:16PM 60.7167 -51.6833 249° West 480 552 37,000  Level Gander Center
12:17PM 60.6667 -51.9333 248° West 480 552 37,000  Level Gander Center
12:18PM 60.6167 -52.1833 248° West 480 552 37,000  Level Gander Center
12:19PM 60.5667 -52.4333 248° West 480 552 37,000  Level Gander Center
12:20PM 60.5167 -52.6833 248° West 480 552 37,000  Level Gander Center
12:21PM 60.4833 -52.9333 255° West 480 552 37,000  Level Gander Center
12:22PM 60.4333 -53.1833 248° West 480 552 37,000  Level Gander Center
12:23PM 60.3833 -53.4333 248° West 470 541 37,000  Level Gander Center
12:24PM 60.3333 -53.6833 248° West 470 541 37,000  Level Gander Center
12:25PM 60.2667 -53.9333 242° Southwest 470 541 37,000  Level Gander Center
12:26PM 60.2333 -54.1333 252° West 470 541 37,000  Level Gander Center
12:28PM 60.1667 -54.4167 245° Southwest 470 541 37,000  Level Gander Center
12:29PM 60.1333 -54.6667 255° West 470 541 37,000  Level Gander Center
12:30PM 60.0667 -54.9167 242° Southwest 470 541 37,000  Level Gander Center
12:32PM 59.9667 -55.4000 248° West 470 541 37,000  Level Gander Center
12:33PM 59.9167 -55.6000 244° Southwest 470 541 37,000  Level Gander Center
12:34PM 59.8667 -55.8500 248° West 470 541 37,000  Level Gander Center
12:35PM 59.8000 -56.0833 240° Southwest 480 552 37,000  Level Gander Center
12:36PM 59.7500 -56.3333 248° West 470 541 37,000  Level Gander Center
12:37PM 59.7000 -56.5667 247° West 470 541 37,000  Level Gander Center
12:38PM 59.6500 -56.8000 247° West 470 541 37,000  Level Gander Center
12:39PM 59.5833 -57.0000 237° Southwest 470 541 37,000  Level Gander Center
12:40PM 59.5333 -57.2500 249° West 470 541 37,000  Level Gander Center
12:41PM 59.4667 -57.4833 241° Southwest 470 541 37,000  Level Gander Center
12:42PM 59.4167 -57.7167 247° West 470 541 37,000  Level Gander Center
12:43PM 59.3667 -57.9500 247° West 460 529 37,000  Level Gander Center
12:44PM 59.3000 -58.1500 237° Southwest 470 541 37,100 300 Climbing Gander Center
12:45PM 59.2333 -58.3833 241° Southwest 470 541 37,700 420 Climbing Gander Center
12:46PM 59.2000 -58.6167 255° West 470 541 38,000 120 Climbing Gander Center
12:47PM 59.1333 -58.8500 241° Southwest 460 529 38,000  Level Gander Center
12:48PM 59.0667 -59.0500 237° Southwest 460 529 38,000  Level Gander Center
12:49PM 59.0000 -59.2833 241° Southwest 460 529 38,000  Level Gander Center
12:50PM 58.9500 -59.5000 246° West 460 529 38,000  Level Gander Center
12:51PM 58.9000 -59.7333 248° West 460 529 38,000  Level Gander Center
12:52PM 58.8333 -59.9333 237° Southwest 460 529 38,000  Level Gander Center
12:53PM 58.7667 -60.1500 239° Southwest 460 529 38,000  Level Gander Center
12:53PM 58.7167 -60.3500 244° Southwest 460 529 38,000  Level Gander Center
12:54PM 58.6667 -60.5500 244° Southwest 460 529 38,000  Level Gander Center
12:56PM 58.6000 -60.8000 243° Southwest 450 518 38,000  Level Gander Center
12:57PM 58.5333 -61.0333 241° Southwest 460 529 38,000  Level Gander Center
12:58PM 58.4667 -61.1833 230° Southwest 460 529 38,000  Level Montreal Center
12:59PM 58.4000 -61.4667 246° West 460 529 38,000  Level Gander Center
01:00PM 58.3333 -61.6667 238° Southwest 460 529 38,000  Level Gander Center
01:01PM 58.2833 -61.8833 246° West 460 529 38,000  Level Gander Center
01:02PM 58.2167 -62.1000 240° Southwest 460 529 38,000  Level Gander Center
01:03PM 58.1500 -62.3000 238° Southwest 460 529 38,000  Level Gander Center
01:04PM 58.1000 -62.5167 246° West 460 529 38,000  Level Gander Center
01:05PM 58.0333 -62.7333 240° Southwest 460 529 38,000  Level Gander Center
01:06PM 57.9667 -62.9167 236° Southwest 460 529 38,000  Level Gander Center
01:07PM 57.8833 -63.1333 234° Southwest 470 541 38,000  Level Gander Center
01:08PM 57.8167 -63.3167 236° Southwest 460 529 38,000  Level Gander Center
01:09PM 57.7500 -63.5000 236° Southwest 460 529 38,000  Level Montreal Center
01:10PM 57.6833 -63.6833 236° Southwest 460 529 38,000  Level Montreal Center
01:11PM 57.6000 -63.9000 234° Southwest 450 518 38,000  Level Montreal Center
01:12PM 57.5333 -64.0667 233° Southwest 450 518 38,000  Level Montreal Center
01:13PM 57.4667 -64.2833 240° Southwest 460 529 38,000  Level Montreal Center
01:14PM 57.4000 -64.5333 244° Southwest 460 529 38,000  Level Gander Center
01:15PM 57.3167 -64.7167 230° Southwest 450 518 38,000  Level Gander Center
01:16PM 57.2667 -64.9167 245° Southwest 450 518 38,000  Level Gander Center
01:17PM 57.2000 -65.1000 236° Southwest 450 518 38,000  Level Gander Center
01:18PM 57.1167 -65.2333 221° Southwest 450 518 38,000  Level Montreal Center
01:19PM 57.0500 -65.4833 244° Southwest 460 529 38,000  Level Gander Center
01:20PM 56.9833 -65.6667 236° Southwest 460 529 38,000  Level Gander Center
01:21PM 56.9000 -65.8333 228° Southwest 460 529 38,000  Level Montreal Center
01:22PM 56.8333 -66.0500 241° Southwest 460 529 38,000  Level Gander Center
01:23PM 56.7500 -66.2833 237° Southwest 460 529 38,000  Level Gander Center
01:24PM 56.6833 -66.4500 234° Southwest 460 529 38,000  Level Gander Center
01:25PM 56.6000 -66.6500 233° Southwest 450 518 38,000  Level Gander Center
01:26PM 56.5333 -66.8167 234° Southwest 460 529 38,000  Level Gander Center
01:27PM 56.4500 -66.9667 225° Southwest 460 529 38,000  Level Montreal Center
01:28PM 56.3833 -67.2000 243° Southwest 460 529 38,000  Level Gander Center
01:29PM 56.3000 -67.4000 233° Southwest 450 518 38,000  Level Gander Center
01:30PM 56.2333 -67.5333 228° Southwest 460 529 38,000  Level Montreal Center
01:31PM 56.1667 -67.7000 234° Southwest 460 529 38,000  Level Montreal Center
01:32PM 56.1000 -67.9000 239° Southwest 460 529 38,000  Level Montreal Center
01:33PM 56.0000 -68.0667 223° Southwest 460 529 38,000  Level Montreal Center
01:34PM 55.9333 -68.2667 239° Southwest 450 518 38,000  Level Montreal Center
01:35PM 55.8500 -68.4333 228° Southwest 460 529 38,000  Level Montreal Center
01:36PM 55.7833 -68.6167 237° Southwest 460 529 38,000  Level Montreal Center
01:37PM 55.7000 -68.8167 234° Southwest 460 529 38,000  Level Montreal Center
01:38PM 55.6167 -68.9833 229° Southwest 460 529 38,000  Level Montreal Center
01:39PM 55.5500 -69.1667 237° Southwest 460 529 38,000  Level Montreal Center
01:40PM 55.4667 -69.3333 229° Southwest 460 529 38,000  Level Montreal Center
01:41PM 55.4000 -69.5167 237° Southwest 460 529 38,000  Level Montreal Center
01:42PM 55.3000 -69.7500 233° Southwest 460 529 38,000  Level Gander Center
01:43PM 55.2333 -69.8833 229° Southwest 450 518 38,000  Level Montreal Center
01:44PM 55.1500 -70.0333 226° Southwest 460 529 38,000  Level Montreal Center
01:45PM 55.0667 -70.2167 232° Southwest 450 518 38,000  Level Montreal Center
01:46PM 55.0000 -70.3833 235° Southwest 450 518 38,000  Level Montreal Center
01:47PM 54.9167 -70.5667 232° Southwest 460 529 38,000  Level Montreal Center
01:48PM 54.8500 -70.7333 235° Southwest 450 518 38,000  Level Montreal Center
01:49PM 54.7667 -70.9167 232° Southwest 460 529 38,000  Level Montreal Center
01:50PM 54.6667 -71.1000 227° Southwest 460 529 38,000  Level Montreal Center
01:51PM 54.6000 -71.2500 233° Southwest 460 529 38,000  Level Montreal Center
01:53PM 54.4333 -71.6500 234° Southwest 470 541 38,000  Level Gander Center
01:54PM 54.3500 -71.8333 232° Southwest 470 541 38,000  Level Gander Center
01:55PM 54.2667 -71.9833 226° Southwest 470 541 38,000  Level Gander Center
01:56PM 54.1833 -72.1667 232° Southwest 470 541 38,000  Level Gander Center
01:57PM 54.0833 -72.2833 214° Southwest 470 541 38,000  Level Montreal Center
01:58PM 54.0167 -72.4667 238° Southwest 470 541 38,000  Level Montreal Center
01:59PM 53.9167 -72.6500 227° Southwest 460 529 38,000  Level Montreal Center
02:00PM 53.8333 -72.8500 235° Southwest 470 541 38,000  Level Gander Center
02:01PM 53.7500 -73.0167 230° Southwest 470 541 38,000  Level Gander Center
02:02PM 53.6667 -73.1667 227° Southwest 470 541 38,000  Level Gander Center
02:03PM 53.5833 -73.3000 224° Southwest 470 541 38,000  Level Montreal Center
02:04PM 53.5000 -73.4667 230° Southwest 470 541 38,000  Level Montreal Center
02:05PM 53.4167 -73.6500 233° Southwest 470 541 38,000  Level Montreal Center
02:06PM 53.3167 -73.8000 222° Southwest 470 541 38,000  Level Montreal Center
02:07PM 53.2333 -73.9667 230° Southwest 470 541 38,000  Level Montreal Center
02:08PM 53.1500 -74.1333 230° Southwest 470 541 38,000  Level Montreal Center
02:09PM 53.0667 -74.2833 227° Southwest 470 541 38,000  Level Montreal Center
02:10PM 52.9833 -74.4500 230° Southwest 470 541 38,000  Level Montreal Center
02:11PM 52.9000 -74.6167 230° Southwest 470 541 38,000  Level Montreal Center
02:12PM 52.8000 -74.8000 228° Southwest 470 541 38,000  Level Montreal Center
02:13PM 52.7000 -74.9333 219° Southwest 480 552 38,000  Level Montreal Center
02:14PM 52.6167 -75.1000 231° Southwest 470 541 38,000  Level Montreal Center
02:15PM 52.5167 -75.2667 225° Southwest 480 552 38,000  Level Montreal Center
02:16PM 52.4333 -75.4333 231° Southwest 480 552 38,000  Level Montreal Center
02:17PM 52.3333 -75.6000 226° Southwest 480 552 38,000  Level Montreal Center
02:18PM 52.2500 -75.7667 231° Southwest 480 552 38,000  Level Montreal Center
02:19PM 52.1667 -75.9167 228° Southwest 480 552 38,000  Level Montreal Center
02:20PM 52.0667 -76.0667 223° Southwest 480 552 38,000  Level Montreal Center
02:21PM 51.9833 -76.2333 231° Southwest 480 552 38,000  Level Montreal Center
02:22PM 51.8833 -76.4000 226° Southwest 480 552 38,000  Level Montreal Center
02:23PM 51.7833 -76.5667 226° Southwest 480 552 38,000  Level Montreal Center
02:24PM 51.6833 -76.7167 223° Southwest 480 552 38,000  Level Montreal Center
02:25PM 51.6000 -76.8833 231° Southwest 480 552 38,000  Level Montreal Center
02:26PM 51.5000 -77.0167 220° Southwest 480 552 38,000  Level Montreal Center
02:27PM 51.4167 -77.1833 231° Southwest 490 564 38,000  Level Montreal Center
02:28PM 51.3167 -77.3333 223° Southwest 470 541 38,000  Level Montreal Center
02:29PM 51.2333 -77.5000 231° Southwest 480 552 38,000  Level Montreal Center
02:30PM 51.1167 -77.6500 219° Southwest 480 552 38,000  Level Montreal Center
02:31PM 51.0333 -77.7833 225° Southwest 480 552 38,000  Level Montreal Center
02:32PM 50.9333 -77.9667 229° Southwest 480 552 38,000  Level Montreal Center
02:33PM 50.8500 -78.1000 225° Southwest 480 552 38,000  Level Montreal Center
02:34PM 50.7500 -78.2500 224° Southwest 480 552 38,000  Level Montreal Center
02:35PM 50.6500 -78.4000 224° Southwest 480 552 38,000  Level Montreal Center
02:36PM 50.5500 -78.5667 227° Southwest 480 552 38,000  Level Montreal Center
02:37PM 50.4667 -78.7167 229° Southwest 480 552 38,000  Level Montreal Center
02:38PM 50.3833 -78.8333 222° Southwest 470 541 38,000  Level Montreal Center
02:39PM 50.2667 -79.0000 222° Southwest 480 552 38,000  Level Montreal Center
02:40PM 50.1833 -79.1500 229° Southwest 470 541 38,000  Level Montreal Center
02:41PM 50.1000 -79.3000 229° Southwest 470 541 38,000  Level Montreal Center
02:42PM 49.9833 -79.4500 220° Southwest 480 552 38,000  Level Montreal Center
02:43PM 49.9000 -79.5667 222° Southwest 470 541 38,000  Level Montreal Center
02:44PM 49.8000 -79.7167 224° Southwest 480 552 38,000  Level Montreal Center
02:45PM 49.7000 -79.8667 224° Southwest 480 552 38,000  Level Montreal Center
02:46PM 49.6167 -79.9833 222° Southwest 480 552 38,000  Level Montreal Center
02:47PM 49.5167 -80.1667 230° Southwest 480 552 38,000  Level Montreal Center
02:48PM 49.4167 -80.2833 217° Southwest 480 552 38,000  Level Montreal Center
02:49PM 49.3167 -80.4333 224° Southwest 480 552 38,000  Level Montreal Center
02:50PM 49.2333 -80.5833 230° Southwest 480 552 38,000  Level Montreal Center
02:51PM 49.1167 -80.7167 217° Southwest 480 552 38,000  Level Montreal Center
02:52PM 49.0167 -80.8167 213° Southwest 480 552 38,000  Level Toronto Center
02:53PM 48.9333 -80.9833 233° Southwest 480 552 38,000  Level Montreal Center
02:54PM 48.8333 -81.1333 225° Southwest 480 552 38,000  Level Montreal Center
02:55PM 48.7333 -81.2667 221° Southwest 480 552 38,000  Level Montreal Center
02:56PM 48.6333 -81.4167 225° Southwest 480 552 38,000  Level Montreal Center
02:57PM 48.5333 -81.5500 221° Southwest 480 552 38,000  Level Montreal Center
02:58PM 48.4333 -81.7000 225° Southwest 480 552 38,000  Level Montreal Center
02:59PM 48.3500 -81.8167 223° Southwest 480 552 38,000  Level Montreal Center
03:00PM 48.2333 -81.9500 217° Southwest 480 552 38,000  Level Montreal Center
03:01PM 48.1500 -82.0833 227° Southwest 480 552 38,000  Level Montreal Center
03:06PM 47.5500 -82.6470 227° Southwest 493 567 38,000  Level FlightAware
03:06PM 47.4810 -82.7130 213° Southwest 493 567 38,000  Level FlightAware
03:07PM 47.4050 -82.7850 213° Southwest 492 566 38,000  Level FlightAware
03:08PM 47.3260 -82.8590 212° Southwest 492 566 38,000  Level FlightAware
03:09PM 47.2360 -82.9440 213° Southwest 493 567 38,000  Level FlightAware
03:09PM 47.1560 -83.0190 213° Southwest 493 567 38,000  Level FlightAware
03:10PM 47.0730 -83.0960 212° Southwest 495 570 38,000  Level FlightAware
03:11PM 46.9960 -83.1680 213° Southwest 495 570 38,000  Level FlightAware
03:11PM 46.9110 -83.2460 212° Southwest 495 570 38,000  Level FlightAware
03:12PM 46.8300 -83.3210 212° Southwest 496 571 38,000  Level FlightAware
03:13PM 46.7510 -83.3930 212° Southwest 496 571 38,000  Level FlightAware
03:13PM 46.6670 -83.4700 212° Southwest 494 568 38,000  Level FlightAware
03:14PM 46.5900 -83.5410 212° Southwest 494 568 38,000  Level FlightAware
03:15PM 46.5030 -83.6190 212° Southwest 493 567 38,000  Level FlightAware
03:16PM 46.3950 -83.7170 212° Southwest 493 567 38,000  Level FlightAware
03:16PM 46.3180 -83.7870 212° Southwest 495 570 38,000  Level FlightAware
03:17PM 46.2330 -83.8630 212° Southwest 495 570 38,000  Level FlightAware
03:18PM 46.1780 -83.9130 212° Southwest 496 571 38,000  Level FlightAware
03:18PM 46.0970 -83.9850 212° Southwest 498 573 38,000  Level FlightAware
03:19PM 46.0190 -84.0540 212° Southwest 497 572 38,000  Level FlightAware
03:20PM 45.9530 -84.1130 212° Southwest 497 572 38,000  Level FlightAware
03:20PM 45.8530 -84.2010 212° Southwest 497 572 38,000  Level FlightAware
03:21PM 45.7760 -84.2650 210° Southwest 500 575 38,000  Level FlightAware
03:22PM 45.6790 -84.3210 202° Southwest 508 585 38,000  Level FlightAware
03:23PM 45.5800 -84.3660 198° South 508 585 38,000  Level FlightAware
03:23PM 45.4860 -84.4080 197° South 508 585 38,000  Level FlightAware
03:24PM 45.3980 -84.4490 198° South 509 586 38,000  Level FlightAware
03:25PM 45.3060 -84.4920 198° South 508 585 38,000 -480 Level FlightAware
03:26PM 45.1790 -84.5510 198° South 503 579 37,300 -900 Descending FlightAware
03:26PM 45.0860 -84.5940 198° South 504 580 36,500 -1,140 Descending FlightAware
03:27PM 44.9800 -84.6420 198° South 510 587 35,600 -1,080 Descending FlightAware
03:28PM 44.8800 -84.6880 198° South 510 587 34,900 -960 Descending FlightAware
03:28PM 44.7910 -84.7280 198° South 512 589 34,300 -1,080 Descending FlightAware
03:29PM 44.7040 -84.7680 198° South 518 596 33,500 -1,140 Descending FlightAware
03:30PM 44.6080 -84.8100 197° South 523 602 32,800 -900 Descending FlightAware
03:31PM 44.5110 -84.8540 198° South 519 597 32,300 -660 Descending FlightAware
03:31PM 44.4230 -84.8930 198° South 522 601 32,000 -240 Descending FlightAware
03:32PM 44.3290 -84.9360 198° South 521 600 32,000  Level FlightAware
03:33PM 44.2090 -84.9890 198° South 521 600 32,000  Level FlightAware
03:34PM 44.0960 -85.0390 198° South 520 598 32,000  Level FlightAware
03:34PM 44.0050 -85.0790 198° South 519 597 32,000  Level FlightAware
03:35PM 43.9100 -85.1210 198° South 518 596 32,000  Level FlightAware
03:36PM 43.8130 -85.1630 197° South 518 596 32,000  Level FlightAware
03:36PM 43.7220 -85.2030 198° South 520 598 32,000  Level FlightAware
03:37PM 43.6430 -85.2310 194° South 523 602 32,000  Level FlightAware
03:37PM 43.5490 -85.2610 193° South 524 603 32,000  Level FlightAware
03:38PM 43.4480 -85.2930 193° South 526 605 32,000 -180 Level FlightAware
03:39PM 43.3540 -85.3220 193° South 527 606 31,800 -600 Descending FlightAware
03:40PM 43.2530 -85.3530 193° South 527 606 31,200 -600 Descending FlightAware
03:40PM 43.1560 -85.3830 193° South 519 597 31,000 -660 Descending FlightAware
03:41PM 43.0480 -85.4170 193° South 521 600 30,300 -1,020 Descending FlightAware
03:42PM 42.9540 -85.4460 193° South 525 604 29,600 -900 Descending FlightAware
03:42PM 42.8550 -85.4800 194° South 517 595 29,100 -780 Descending FlightAware
03:43PM 42.7860 -85.5580 220° Southwest 482 555 28,600 -900 Descending FlightAware
03:44PM 42.7540 -85.6740 249° West 453 521 27,900 -1,680 Descending FlightAware
03:44PM 42.7330 -85.7950 257° West 444 511 26,200 -2,520 Descending FlightAware
03:45PM 42.7130 -85.9080 256° West 442 509 24,400 -2,340 Descending FlightAware
03:46PM 42.6960 -86.0030 256° West 433 498 23,200 -2,220 Descending FlightAware
03:47PM 42.6730 -86.1240 256° West 425 489 21,400 -2,220 Descending FlightAware
03:47PM 42.6540 -86.2270 256° West 428 493 20,100 -1,080 Descending FlightAware
03:48PM 42.6350 -86.3310 256° West 424 488 20,000 -600 Descending FlightAware
03:49PM 42.6130 -86.4490 256° West 409 471 19,300 -1,500 Descending FlightAware
03:49PM 42.5930 -86.5530 255° West 399 459 17,800 -2,100 Descending FlightAware
03:51PM 42.5610 -86.7170 255° West 389 448 15,400 -1,440 Descending FlightAware
03:51PM 42.5440 -86.7890 252° West 389 448 15,300 -480 Descending FlightAware
03:52PM 42.5100 -86.9100 249° West 384 442 14,800 -1,320 Descending FlightAware
03:53PM 42.4860 -86.9990 250° West 382 440 13,300 -2,220 Descending FlightAware
03:53PM 42.4620 -87.0880 250° West 376 433 11,900 -2,160 Descending FlightAware
03:54PM 42.4360 -87.1820 249° West 370 426 10,400 -1,620 Descending FlightAware
03:55PM 42.4170 -87.2510 250° West 353 406 9,900 -720 Descending FlightAware
03:55PM 42.4090 -87.2790 249° West 353 406 9,900  Level FlightAware
03:56PM 42.3710 -87.4180 250° West 353 406 9,900  Level FlightAware
03:56PM 42.3530 -87.4810 249° West 353 406 9,900  Level FlightAware
03:57PM 42.3470 -87.5020 249° West 354 407 9,900  Level FlightAware
03:57PM 42.3120 -87.5630 232° Southwest 372 428 9,900  Level FlightAware
03:58PM 42.2780 -87.5990 218° Southwest 371 427 9,900  Level FlightAware
03:58PM 42.2460 -87.6330 218° Southwest 373 429 9,900 60 Level FlightAware
03:58PM 42.2040 -87.6770 218° Southwest 339 390 10,000 -120 Climbing FlightAware
03:59PM 42.1680 -87.7140 217° Southwest 313 360 9,800 -540 Descending FlightAware
03:59PM 42.1610 -87.7210 217° Southwest 311 358 9,700 -1,320 Descending FlightAware
04:00PM 42.1260 -87.7590 219° Southwest 308 354 9,000 -1,380 Descending FlightAware
04:00PM 42.1080 -87.7790 220° Southwest 302 348 8,600 -1,440 Descending FlightAware
04:00PM 42.0990 -87.7950 233° Southwest 291 335 8,400 -480 Descending FlightAware
04:00PM 42.0870 -87.8300 245° Southwest 273 314 8,300 -540 Descending FlightAware
04:01PM 42.0670 -87.8830 243° Southwest 253 291 7,900 -720 Descending FlightAware
04:02PM 42.0610 -87.9210 258° West 236 272 7,600 -660 Descending FlightAware
04:02PM 42.0540 -87.9770 260° West 211 243 7,200 -660 Descending FlightAware
04:03PM 42.0500 -88.0130 262° West 192 221 6,900 -480 Descending FlightAware
04:03PM 42.0480 -88.0270 259° West 193 222 6,900  Level FlightAware
04:03PM 42.0440 -88.0610 261° West 190 219 6,900 60 Level FlightAware
04:04PM 42.0400 -88.0980 262° West 189 217 7,000 60 Climbing FlightAware
04:04PM 42.0360 -88.1300 260° West 186 214 7,000 -120 Level FlightAware
04:05PM 42.0360 -88.1730 270° West 184 212 6,900  Descending FlightAware
04:05PM 42.0370 -88.2070 272° West 188 216 7,000 60 Climbing FlightAware
04:06PM 42.0380 -88.2370 273° West 190 219 7,000  Level FlightAware
04:06PM 42.0390 -88.2730 272° West 191 220 7,000  Level FlightAware
04:07PM 42.0400 -88.2950 274° West 198 228 7,000 -180 Level FlightAware
04:07PM 42.0400 -88.3270 270° West 199 229 6,900 -120 Descending FlightAware
04:08PM 42.0410 -88.3580 272° West 200 230 6,900 60 Level FlightAware
04:08PM 42.0240 -88.3900 234° Southwest 216 249 7,000 120 Climbing FlightAware
04:08PM 42.0140 -88.3920 188° South 220 253 7,000 -1,020 Level FlightAware
04:09PM 41.9880 -88.3680 146° Southeast 210 242 6,300 -1,200 Descending FlightAware
04:09PM 41.9780 -88.3340 112° Southeast 206 237 5,800 -900 Descending FlightAware
04:10PM 41.9690 -88.3010 110° East 196 226 5,500 -780 Descending FlightAware
04:10PM 41.9670 -88.2870 101° East 194 223 5,300 -720 Descending FlightAware
04:10PM 41.9680 -88.2640 87° East 190 219 5,000 -480 Descending FlightAware
04:11PM 41.9680 -88.2230 90° East 196 226 4,900 -780 Descending FlightAware
04:11PM 41.9680 -88.1860 90° East 198 228 4,300 -1,200 Descending FlightAware
04:12PM 41.9680 -88.1660 90° East 200 230 4,000 -1,080 Descending FlightAware
04:12PM 41.9680 -88.1190 90° East 196 226 3,300 -1,080 Descending FlightAware
04:13PM 41.9690 -88.0790 88° East 197 227 2,800 -1,020 Descending FlightAware
04:13PM 41.9690 -88.0520 90° East 176 203 2,400 -960 Descending FlightAware
04:14PM 41.9690 -88.0240 90° East 155 178 2,000 -780 Descending FlightAware
04:14PM 41.9690 -87.9990 90° East 143 165 1,700 -840 Descending FlightAware
04:15PM 41.9690 -87.9690 90° East 147 169 1,200 -900 Descending FlightAware
04:15PM 41.9690 -87.9480 90° East 149 171 900 -540 Descending FlightAware
04:15PM 41.9690 -87.9420 90° East 148 170 800 -120 Descending FlightAware
04:16PM 41.9690 -87.9210 90° East 148 170 800  Level FlightAware